createdAt,value
2022-11-08T00:01:27.575Z,100376.03
2022-11-08T00:03:57.256Z,100391.31
2022-11-08T00:06:42.751Z,100390.19
2022-11-08T00:09:28.516Z,100389.34
2022-11-08T00:12:13.850Z,100374.44
2022-11-08T00:14:41.582Z,100382.78
2022-11-08T00:17:09.666Z,100383.53
2022-11-08T00:19:38.713Z,100378.44
2022-11-08T00:22:06.439Z,100393.63
2022-11-08T00:24:34.804Z,100391.81
2022-11-08T00:27:02.527Z,100384.00
2022-11-08T00:29:30.289Z,100381.19
2022-11-08T00:31:58.042Z,100386.19
2022-11-08T00:34:25.719Z,100382.03
2022-11-08T00:36:54.818Z,100382.53
2022-11-08T00:39:22.561Z,100380.59
2022-11-08T00:41:50.255Z,100382.94
2022-11-08T00:44:17.973Z,100392.25
2022-11-08T00:46:45.808Z,100386.97
2022-11-08T00:49:13.563Z,100383.34
2022-11-08T00:51:41.620Z,100382.66
2022-11-08T00:54:14.588Z,100384.66
2022-11-08T00:56:42.588Z,100388.16
2022-11-08T00:59:12.427Z,100384.66
2022-11-08T01:01:40.879Z,100381.38
2022-11-08T01:04:10.154Z,100369.97
2022-11-08T01:06:39.283Z,100384.66
2022-11-08T01:09:07.947Z,100384.38
2022-11-08T01:11:37.305Z,100367.94
2022-11-08T01:14:05.053Z,100369.75
2022-11-08T01:16:34.315Z,100370.28
2022-11-08T01:19:02.626Z,100364.84
2022-11-08T01:21:30.477Z,100364.53
2022-11-08T01:23:58.250Z,100351.13
2022-11-08T01:26:28.145Z,100359.22
2022-11-08T01:28:58.447Z,100359.75
2022-11-08T01:31:29.066Z,100357.94
2022-11-08T01:33:58.174Z,100343.72
2022-11-08T01:36:28.200Z,100355.31
2022-11-08T01:38:56.799Z,100342.19
2022-11-08T01:41:26.691Z,100350.81
2022-11-08T01:43:55.539Z,100313.44
2022-11-08T01:46:36.738Z,100331.44
2022-11-08T01:49:39.915Z,100335.22
2022-11-08T01:52:31.215Z,100334.25
2022-11-08T01:55:08.693Z,100339.53
2022-11-08T01:57:42.681Z,100332.41
2022-11-08T02:00:13.370Z,100327.66
2022-11-08T02:02:44.961Z,100329.63
2022-11-08T02:05:25.762Z,100329.91
2022-11-08T02:07:57.237Z,100328.25
2022-11-08T02:10:30.520Z,100324.09
2022-11-08T02:13:00.526Z,100326.59
2022-11-08T02:15:32.437Z,100330.66
2022-11-08T02:18:02.818Z,100325.22
2022-11-08T02:20:30.578Z,100317.06
2022-11-08T02:23:06.080Z,100318.72
2022-11-08T02:25:35.460Z,100312.34
2022-11-08T02:28:03.195Z,100321.44
2022-11-08T02:30:34.137Z,100317.13
2022-11-08T02:33:01.879Z,100317.28
2022-11-08T02:35:29.793Z,100315.38
2022-11-08T02:37:57.614Z,100311.53
2022-11-08T02:40:25.343Z,100309.84
2022-11-08T02:42:54.386Z,100315.84
2022-11-08T02:45:22.117Z,100315.47
2022-11-08T02:47:49.801Z,100313.47
2022-11-08T02:50:17.547Z,100312.13
2022-11-08T02:52:45.249Z,100298.91
2022-11-08T02:55:12.983Z,100293.59
2022-11-08T02:57:40.653Z,100292.63
2022-11-08T03:00:11.602Z,100289.28
2022-11-08T03:02:39.343Z,100280.09
2022-11-08T03:05:07.812Z,100272.31
2022-11-08T03:07:35.495Z,100272.09
2022-11-08T03:10:03.632Z,100263.47
2022-11-08T03:12:31.313Z,100244.53
2022-11-08T03:14:59.003Z,100266.47
2022-11-08T03:17:28.037Z,100260.66
2022-11-08T03:19:56.148Z,100240.06
2022-11-08T03:22:24.137Z,100246.75
2022-11-08T03:24:51.837Z,100233.09
2022-11-08T03:27:20.197Z,100228.66
2022-11-08T03:29:47.926Z,100224.47
2022-11-08T03:32:16.552Z,100222.56
2022-11-08T03:34:45.695Z,100213.09
2022-11-08T03:37:13.392Z,100215.34
2022-11-08T03:39:41.098Z,100218.16
2022-11-08T03:42:08.771Z,100210.59
2022-11-08T03:44:36.531Z,100201.81
2022-11-08T03:47:04.254Z,100202.66
2022-11-08T03:49:31.976Z,100203.50
2022-11-08T03:52:01.034Z,100212.03
2022-11-08T03:54:28.792Z,100198.97
2022-11-08T03:56:56.493Z,100206.44
2022-11-08T03:59:24.185Z,100205.75
2022-11-08T04:01:51.966Z,100199.47
2022-11-08T04:04:19.846Z,100196.13
2022-11-08T04:06:47.579Z,100193.69
2022-11-08T04:09:21.304Z,100188.88
2022-11-08T04:12:06.763Z,100183.59
2022-11-08T04:14:51.865Z,100191.38
2022-11-08T04:17:19.584Z,100188.06
2022-11-08T04:20:10.206Z,100196.13
2022-11-08T04:22:37.919Z,100200.09
2022-11-08T04:25:08.179Z,100178.91
2022-11-08T04:27:36.029Z,100180.50
2022-11-08T04:30:04.042Z,100179.81
2022-11-08T04:32:31.769Z,100171.50
2022-11-08T04:34:59.481Z,100169.84
2022-11-08T04:37:27.205Z,100176.25
2022-11-08T04:39:54.983Z,100180.56
2022-11-08T04:42:24.105Z,100179.75
2022-11-08T04:44:51.799Z,100187.06
2022-11-08T04:47:19.516Z,100177.44
2022-11-08T04:49:47.336Z,100177.25
2022-11-08T04:52:16.707Z,100170.81
2022-11-08T04:54:44.701Z,100167.34
2022-11-08T04:57:12.442Z,100158.56
2022-11-08T04:59:41.499Z,100144.66
2022-11-08T05:02:09.334Z,100151.50
2022-11-08T05:04:37.226Z,100161.44
2022-11-08T05:07:04.883Z,100152.03
2022-11-08T05:09:32.634Z,100137.63
2022-11-08T05:12:00.814Z,100133.13
2022-11-08T05:14:28.571Z,100136.09
2022-11-08T05:16:57.662Z,100115.66
2022-11-08T05:19:39.313Z,100127.34
2022-11-08T05:22:24.263Z,100122.03
2022-11-08T05:24:51.962Z,100110.09
2022-11-08T05:27:19.851Z,100113.72
2022-11-08T05:29:47.582Z,100102.59
2022-11-08T05:32:16.648Z,100092.84
2022-11-08T05:34:44.350Z,100096.63
2022-11-08T05:37:12.065Z,100094.50
2022-11-08T05:39:39.798Z,100091.16
2022-11-08T05:42:07.629Z,100090.13
2022-11-08T05:44:35.408Z,100080.09
2022-11-08T05:47:03.296Z,100081.22
2022-11-08T05:49:34.955Z,100077.06
2022-11-08T05:52:03.120Z,100092.63
2022-11-08T05:54:31.445Z,100083.56
2022-11-08T05:56:59.507Z,100054.91
2022-11-08T05:59:29.887Z,100051.13
2022-11-08T06:01:58.063Z,100040.75
2022-11-08T06:04:25.946Z,100055.75
2022-11-08T06:06:55.094Z,100040.56
2022-11-08T06:09:23.051Z,100040.84
2022-11-08T06:11:50.845Z,100011.91
2022-11-08T06:14:18.979Z,100010.78
2022-11-08T06:16:46.686Z,100020.38
2022-11-08T06:19:14.397Z,100016.59
2022-11-08T06:21:42.085Z,100016.66
2022-11-08T06:24:11.346Z,100020.81
2022-11-08T06:26:39.081Z,100014.41
2022-11-08T06:29:06.815Z,100025.88
2022-11-08T06:31:38.292Z,100021.41
2022-11-08T06:34:10.225Z,100029.19
2022-11-08T06:36:38.312Z,100023.91
2022-11-08T06:39:06.047Z,100029.88
2022-11-08T06:41:35.450Z,100022.91
2022-11-08T06:44:03.402Z,100035.84
2022-11-08T06:46:31.315Z,100038.66
2022-11-08T06:48:59.067Z,100051.28
2022-11-08T06:51:26.861Z,100040.47
2022-11-08T06:53:54.728Z,100046.97
2022-11-08T06:56:22.455Z,100033.59
2022-11-08T06:58:52.635Z,100049.69
2022-11-08T07:01:20.436Z,100047.13
2022-11-08T07:03:48.183Z,100048.16
2022-11-08T07:06:15.925Z,100046.03
2022-11-08T07:08:43.654Z,100052.47
2022-11-08T07:11:11.405Z,100057.63
2022-11-08T07:13:39.191Z,100052.16
2022-11-08T07:16:08.855Z,100060.78
2022-11-08T07:18:36.659Z,100059.13
2022-11-08T07:21:04.647Z,100057.84
2022-11-08T07:23:32.777Z,100038.50
2022-11-08T07:26:04.405Z,100050.66
2022-11-08T07:28:32.739Z,100049.81
2022-11-08T07:31:02.672Z,100056.56
2022-11-08T07:33:32.559Z,100054.91
2022-11-08T07:36:00.540Z,100046.28
2022-11-08T07:38:28.265Z,100030.19
2022-11-08T07:40:59.451Z,100054.91
2022-11-08T07:43:28.789Z,100053.25
2022-11-08T07:46:02.083Z,100043.69
2022-11-08T07:48:32.210Z,100056.88
2022-11-08T07:51:00.186Z,100075.25
2022-11-08T07:53:27.891Z,100080.38
2022-11-08T07:55:55.608Z,100088.97
2022-11-08T07:58:23.733Z,100088.00
2022-11-08T08:00:51.532Z,100073.94
2022-11-08T08:03:19.801Z,100076.44
2022-11-08T08:05:59.565Z,100062.22
2022-11-08T08:08:29.319Z,100045.06
2022-11-08T08:11:01.538Z,100051.34
2022-11-08T08:13:30.039Z,100051.41
2022-11-08T08:16:01.655Z,100050.47
2022-11-08T08:18:30.272Z,100054.78
2022-11-08T08:20:59.960Z,100051.50
2022-11-08T08:23:28.168Z,100045.06
2022-11-08T08:25:56.170Z,100057.63
2022-11-08T08:28:23.890Z,100064.38
2022-11-08T08:30:51.693Z,100060.34
2022-11-08T08:33:28.225Z,100059.75
2022-11-08T08:35:56.577Z,100070.34
2022-11-08T08:38:26.097Z,100073.78
2022-11-08T08:40:53.971Z,100078.66
2022-11-08T08:43:22.262Z,100073.22
2022-11-08T08:45:50.227Z,100085.00
2022-11-08T08:48:18.395Z,100072.59
2022-11-08T08:50:46.190Z,100072.94
2022-11-08T08:53:14.446Z,100077.31
2022-11-08T08:55:43.514Z,100070.69
2022-11-08T08:58:12.209Z,100076.38
2022-11-08T09:03:27.627Z,100069.94
2022-11-08T09:05:57.453Z,100060.78
2022-11-08T09:08:25.667Z,100059.84
2022-11-08T09:10:59.223Z,100062.84
2022-11-08T09:13:28.776Z,100053.91
2022-11-08T09:15:56.499Z,100064.19
2022-11-08T09:18:24.330Z,100081.13
2022-11-08T09:20:52.096Z,100087.59
2022-11-08T09:23:20.182Z,100071.22
2022-11-08T09:25:48.105Z,100084.13
2022-11-08T09:28:18.759Z,100077.84
2022-11-08T09:30:46.508Z,100066.41
2022-11-08T09:33:14.229Z,100061.75
2022-11-08T09:35:42.015Z,100071.00
2022-11-08T09:38:09.746Z,100074.19
2022-11-08T09:40:41.486Z,100066.91
2022-11-08T09:43:33.563Z,100069.69
2022-11-08T09:46:01.392Z,100054.13
2022-11-08T09:48:33.035Z,100058.59
2022-11-08T09:51:06.033Z,100054.97
2022-11-08T09:53:41.716Z,100046.19
2022-11-08T09:56:17.642Z,100044.03
2022-11-08T09:58:54.276Z,100043.69
2022-11-08T10:01:27.269Z,100044.03
2022-11-08T10:03:58.094Z,100036.75
2022-11-08T10:06:44.913Z,100043.41
2022-11-08T10:09:25.783Z,100043.25
2022-11-08T10:12:03.961Z,100045.41
2022-11-08T10:14:52.314Z,100048.91
2022-11-08T10:17:38.959Z,100050.41
2022-11-08T10:20:20.226Z,100034.31
2022-11-08T10:22:55.636Z,100020.25
2022-11-08T10:25:26.197Z,100027.53
2022-11-08T10:27:57.324Z,100009.31
2022-11-08T10:30:33.492Z,100019.59
2022-11-08T10:33:01.870Z,100018.09
2022-11-08T10:35:37.102Z,100008.00
2022-11-08T10:38:17.821Z,100008.03
2022-11-08T10:40:55.313Z,100012.69
2022-11-08T10:43:31.130Z,100013.34
2022-11-08T10:46:00.196Z,100000.56
2022-11-08T10:48:28.050Z,100010.72
2022-11-08T10:50:56.027Z,100006.44
2022-11-08T10:53:27.100Z,100019.69
2022-11-08T10:56:01.132Z,100009.75
2022-11-08T10:58:36.854Z,100009.75
2022-11-08T11:01:14.126Z,99999.47
2022-11-08T11:03:42.323Z,99998.47
2022-11-08T11:06:24.254Z,100000.47
2022-11-08T11:08:56.080Z,99994.16
2022-11-08T11:11:27.355Z,99987.84
2022-11-08T11:14:16.313Z,99980.53
2022-11-08T11:16:56.359Z,99966.59
2022-11-08T11:19:24.982Z,99976.22
2022-11-08T11:21:57.326Z,99980.53
2022-11-08T11:24:25.636Z,99974.56
2022-11-08T11:27:03.277Z,99977.72
2022-11-08T11:29:32.483Z,99983.00
2022-11-08T11:32:25.810Z,99982.69
2022-11-08T11:34:57.340Z,99981.00
2022-11-08T11:37:40.098Z,99980.34
2022-11-08T11:40:16.906Z,99979.50
2022-11-08T11:42:53.737Z,99971.69
2022-11-08T11:45:28.731Z,99958.56
2022-11-08T11:47:59.023Z,99955.53
2022-11-08T11:50:33.536Z,99952.88
2022-11-08T11:53:05.955Z,99945.59
2022-11-08T11:55:51.751Z,99953.88
2022-11-08T11:58:33.659Z,99950.50
2022-11-08T12:01:13.144Z,99953.16
2022-11-08T12:03:57.819Z,99939.94
2022-11-08T12:06:37.231Z,99948.19
2022-11-08T12:09:20.333Z,99946.72
2022-11-08T12:11:59.775Z,99945.91
2022-11-08T12:14:42.238Z,99947.91
2022-11-08T12:17:27.839Z,99958.19
2022-11-08T12:20:13.527Z,99963.13
2022-11-08T12:22:52.218Z,99950.50
2022-11-08T12:25:25.968Z,99959.97
2022-11-08T12:27:57.496Z,99955.50
2022-11-08T12:30:31.893Z,99961.78
2022-11-08T12:33:20.814Z,99966.72
2022-11-08T12:36:04.313Z,99979.16
2022-11-08T12:38:38.839Z,99987.16
2022-11-08T12:41:15.520Z,99982.53
2022-11-08T12:44:00.818Z,99968.72
2022-11-08T12:46:34.170Z,99975.03
2022-11-08T12:49:24.503Z,99971.19
2022-11-08T12:52:05.146Z,99975.38
2022-11-08T12:54:36.831Z,99989.78
2022-11-08T12:57:11.289Z,100001.09
2022-11-08T12:59:43.046Z,99995.66
2022-11-08T13:02:19.516Z,99997.94
2022-11-08T13:04:56.162Z,99986.97
2022-11-08T13:07:34.935Z,99967.72
2022-11-08T13:10:12.868Z,99971.72
2022-11-08T13:13:04.657Z,99968.69
2022-11-08T13:15:32.438Z,99940.81
2022-11-08T13:18:34.088Z,99938.63
2022-11-08T13:21:01.872Z,99905.47
2022-11-08T13:23:33.045Z,99907.25
2022-11-08T13:26:22.901Z,99928.19
2022-11-08T13:28:51.743Z,99912.88
2022-11-08T13:31:45.605Z,99938.81
2022-11-08T13:34:22.775Z,99920.69
2022-11-08T13:37:13.517Z,99920.84
2022-11-08T13:40:17.604Z,99916.88
2022-11-08T13:43:15.798Z,99914.41
2022-11-08T13:45:44.970Z,99924.91
2022-11-08T13:48:38.417Z,99927.25
2022-11-08T13:51:25.130Z,99931.75
2022-11-08T13:53:57.813Z,99908.69
2022-11-08T13:56:48.120Z,99944.50
2022-11-08T14:00:00.205Z,99919.78
2022-11-08T14:02:33.489Z,99896.09
2022-11-08T14:05:22.943Z,99927.56
2022-11-08T14:08:01.708Z,99934.53
2022-11-08T14:10:42.377Z,99914.47
2022-11-08T14:13:19.316Z,99931.88
2022-11-08T14:15:55.732Z,99936.00
2022-11-08T14:18:27.429Z,99908.03
2022-11-08T14:20:57.769Z,99937.19
2022-11-08T14:23:29.184Z,99926.75
2022-11-08T14:25:59.168Z,99909.13
2022-11-08T14:28:29.378Z,99919.94
2022-11-08T14:30:59.914Z,99925.25
2022-11-08T14:33:28.907Z,99926.91
2022-11-08T14:35:59.537Z,99921.25
2022-11-08T14:38:28.066Z,99920.88
2022-11-08T14:40:59.526Z,99923.53
2022-11-08T14:43:30.697Z,99922.53
2022-11-08T14:46:00.866Z,99917.41
2022-11-08T14:48:30.934Z,99913.94
2022-11-08T14:51:03.514Z,99922.53
2022-11-08T14:53:32.933Z,99913.13
2022-11-08T14:56:18.082Z,99901.00
2022-11-08T14:58:47.201Z,99912.63
2022-11-08T15:01:20.227Z,99917.59
2022-11-08T15:03:54.279Z,99915.44
2022-11-08T15:06:23.577Z,99924.84
2022-11-08T15:08:54.775Z,99929.19
2022-11-08T15:11:31.629Z,99926.19
2022-11-08T15:14:02.020Z,99929.19
2022-11-08T15:16:40.040Z,99902.94
2022-11-08T15:19:38.907Z,99927.16
2022-11-08T15:22:25.758Z,99920.38
2022-11-08T15:25:02.833Z,99917.56
2022-11-08T15:27:30.776Z,99888.38
2022-11-08T15:30:03.791Z,99914.69
2022-11-08T15:32:37.860Z,99885.66
2022-11-08T15:35:08.165Z,99908.75
2022-11-08T15:37:39.380Z,99900.94
2022-11-08T15:40:17.025Z,99914.34
2022-11-08T15:42:46.128Z,99922.81
2022-11-08T15:45:25.597Z,99909.50
2022-11-08T15:48:02.607Z,99908.84
2022-11-08T15:50:33.143Z,99874.53
2022-11-08T15:53:04.907Z,99897.22
2022-11-08T15:55:37.458Z,99909.84
2022-11-08T15:58:05.738Z,99905.19
2022-11-08T16:00:36.340Z,99899.72
2022-11-08T16:03:05.907Z,99899.72
2022-11-08T16:05:33.625Z,99875.00
2022-11-08T16:08:01.512Z,99893.56
2022-11-08T16:10:31.917Z,99896.56
2022-11-08T16:13:01.408Z,99870.88
2022-11-08T16:15:32.574Z,99897.38
2022-11-08T16:18:00.699Z,99883.44
2022-11-08T16:20:31.661Z,99870.97
2022-11-08T16:23:01.226Z,99875.94
2022-11-08T16:25:30.535Z,99884.59
2022-11-08T16:28:03.641Z,99880.91
2022-11-08T16:30:33.989Z,99876.91
2022-11-08T16:33:18.489Z,99872.59
2022-11-08T16:35:47.983Z,99882.22
2022-11-08T16:38:16.351Z,99878.75
2022-11-08T16:40:44.190Z,99895.53
2022-11-08T16:43:12.734Z,99896.34
2022-11-08T16:46:07.754Z,99900.84
2022-11-08T16:48:28.332Z,99884.94
2022-11-08T16:51:00.420Z,99903.84
2022-11-08T16:53:29.300Z,99912.16
2022-11-08T16:55:57.940Z,99890.97
2022-11-08T16:58:26.054Z,99862.06
2022-11-08T17:00:53.963Z,99884.94
2022-11-08T17:03:23.138Z,99884.94
2022-11-08T17:05:51.925Z,99893.41
2022-11-08T17:08:21.306Z,99900.72
2022-11-08T17:10:49.232Z,99902.03
2022-11-08T17:13:19.724Z,99897.69
2022-11-08T17:15:49.138Z,99868.88
2022-11-08T17:18:19.285Z,99879.25
2022-11-08T17:20:47.432Z,99879.59
2022-11-08T17:23:16.333Z,99894.03
2022-11-08T17:25:45.367Z,99877.94
2022-11-08T17:28:14.069Z,99873.19
2022-11-08T17:30:44.510Z,99894.88
2022-11-08T17:33:28.691Z,99898.53
2022-11-08T17:35:56.378Z,99892.38
2022-11-08T17:38:24.053Z,99888.06
2022-11-08T17:40:53.199Z,99884.94
2022-11-08T17:43:21.047Z,99897.22
2022-11-08T17:45:51.028Z,99884.00
2022-11-08T17:48:18.791Z,99894.22
2022-11-08T17:50:48.167Z,99881.78
2022-11-08T17:53:16.029Z,99898.88
2022-11-08T17:55:43.954Z,99904.03
2022-11-08T17:58:13.012Z,99890.97
2022-11-08T18:00:40.827Z,99898.69
2022-11-08T18:03:12.949Z,99904.19
2022-11-08T18:05:40.687Z,99909.69
2022-11-08T18:08:08.396Z,99902.19
2022-11-08T18:10:36.472Z,99876.28
2022-11-08T18:13:04.316Z,99891.56
2022-11-08T18:15:33.382Z,99887.56
2022-11-08T18:18:01.247Z,99877.66
2022-11-08T18:20:28.982Z,99893.22
2022-11-08T18:22:56.725Z,99890.25
2022-11-08T18:25:24.655Z,99878.91
2022-11-08T18:27:52.407Z,99880.09
2022-11-08T18:30:20.155Z,99897.69
2022-11-08T18:32:49.278Z,99901.53
2022-11-08T18:35:17.236Z,99897.22
2022-11-08T18:37:44.970Z,99898.06
2022-11-08T18:40:13.428Z,99897.53
2022-11-08T18:42:41.295Z,99894.56
2022-11-08T18:45:10.254Z,99900.53
2022-11-08T18:47:38.004Z,99907.69
2022-11-08T18:50:09.470Z,99908.34
2022-11-08T18:52:37.689Z,99907.50
2022-11-08T18:55:07.134Z,99887.41
2022-11-08T18:57:34.888Z,99899.06
2022-11-08T19:00:03.065Z,99876.31
2022-11-08T19:02:30.824Z,99898.06
2022-11-08T19:04:59.126Z,99893.91
2022-11-08T19:07:28.224Z,99900.88
2022-11-08T19:09:59.817Z,99896.88
2022-11-08T19:12:28.959Z,99903.19
2022-11-08T19:14:56.736Z,99902.19
2022-11-08T19:17:24.550Z,99886.94
2022-11-08T19:19:52.354Z,99911.81
2022-11-08T19:22:23.319Z,99912.00
2022-11-08T19:24:52.478Z,99928.78
2022-11-08T19:27:21.145Z,99929.63
2022-11-08T19:29:49.299Z,99918.97
2022-11-08T19:32:19.474Z,99909.69
2022-11-08T19:34:49.903Z,99908.03
2022-11-08T19:37:17.669Z,99904.53
2022-11-08T19:39:45.415Z,99893.94
2022-11-08T19:42:14.582Z,99900.06
2022-11-08T19:44:42.315Z,99910.84
2022-11-08T19:47:10.203Z,99908.84
2022-11-08T19:49:38.118Z,99904.56
2022-11-08T19:52:06.217Z,99900.41
2022-11-08T19:54:34.052Z,99915.53
2022-11-08T19:57:04.750Z,99898.59
2022-11-08T19:59:34.479Z,99903.91
2022-11-08T20:02:02.258Z,99900.75
2022-11-08T20:04:30.081Z,99907.22
2022-11-08T20:06:57.914Z,99910.88
2022-11-08T20:09:30.203Z,99898.59
2022-11-08T20:11:58.482Z,99900.59
2022-11-08T20:14:26.253Z,99907.41
2022-11-08T20:16:55.578Z,99908.63
2022-11-08T20:19:23.286Z,99906.97
2022-11-08T20:21:51.037Z,99909.25
2022-11-08T20:24:18.862Z,99894.69
2022-11-08T20:26:46.599Z,99906.25
2022-11-08T20:29:15.120Z,99913.22
2022-11-08T20:31:42.923Z,99914.22
2022-11-08T20:34:13.086Z,99918.53
2022-11-08T20:36:41.574Z,99914.22
2022-11-08T20:39:10.283Z,99911.09
2022-11-08T20:41:39.097Z,99884.47
2022-11-08T20:44:07.755Z,99906.13
2022-11-08T20:46:36.770Z,99909.41
2022-11-08T20:49:05.430Z,99917.22
2022-11-08T20:51:34.956Z,99914.88
2022-11-08T20:54:03.121Z,99915.22
2022-11-08T20:56:31.259Z,99900.69
2022-11-08T20:58:59.254Z,99910.13
2022-11-08T21:01:29.507Z,99891.56
2022-11-08T21:03:57.810Z,99914.09
2022-11-08T21:06:27.182Z,99917.22
2022-11-08T21:09:03.235Z,99910.75
2022-11-08T21:11:36.402Z,99921.72
2022-11-08T21:14:04.736Z,99923.84
2022-11-08T21:16:46.926Z,99913.88
2022-11-08T21:19:20.544Z,99904.59
2022-11-08T21:21:48.347Z,99916.88
2022-11-08T21:24:18.017Z,99921.19
2022-11-08T21:26:45.724Z,99925.53
2022-11-08T21:29:13.460Z,99930.50
2022-11-08T21:31:41.164Z,99927.84
2022-11-08T21:34:09.751Z,99929.34
2022-11-08T21:36:37.502Z,99925.53
2022-11-08T21:39:05.333Z,99931.50
2022-11-08T21:41:34.407Z,99934.97
2022-11-08T21:44:02.187Z,99941.13
2022-11-08T21:46:29.958Z,99936.16
2022-11-08T21:48:59.408Z,99939.81
2022-11-08T21:51:29.231Z,99941.13
2022-11-08T21:53:58.307Z,99950.94
2022-11-08T21:56:29.251Z,99959.91
2022-11-08T21:58:58.817Z,99947.47
2022-11-08T22:01:30.221Z,99956.63
2022-11-08T22:03:59.082Z,99966.06
2022-11-08T22:06:27.158Z,99958.47
2022-11-08T22:08:55.210Z,99963.28
2022-11-08T22:11:23.054Z,99955.63
2022-11-08T22:13:50.872Z,99952.16
2022-11-08T22:16:20.009Z,99955.81
2022-11-08T22:19:04.251Z,99953.16
2022-11-08T22:21:40.005Z,99960.28
2022-11-08T22:24:10.229Z,99950.66
2022-11-08T22:26:38.258Z,99935.56
2022-11-08T22:29:06.320Z,99945.50
2022-11-08T22:31:35.728Z,99939.53
2022-11-08T22:34:03.718Z,99904.41
2022-11-08T22:36:31.466Z,99933.88
2022-11-08T22:38:59.285Z,99924.91
2022-11-08T22:41:27.116Z,99928.75
2022-11-08T22:43:54.885Z,99938.19
2022-11-08T22:46:23.069Z,99931.88
2022-11-08T22:48:52.177Z,99940.84
2022-11-08T22:51:19.905Z,99933.53
2022-11-08T22:53:47.650Z,99944.19
2022-11-08T22:56:15.418Z,99934.16
2022-11-08T22:58:43.289Z,99924.28
2022-11-08T23:01:13.038Z,99940.84
2022-11-08T23:03:41.128Z,99930.22
2022-11-08T23:06:10.371Z,99931.41
2022-11-08T23:08:38.204Z,99939.19
2022-11-08T23:11:23.446Z,99937.53
2022-11-08T23:14:08.777Z,99941.19
2022-11-08T23:16:41.256Z,99943.19
2022-11-08T23:19:29.524Z,99946.19
2022-11-08T23:22:16.387Z,99936.22
2022-11-08T23:24:44.750Z,99939.06
2022-11-08T23:27:31.918Z,99951.50
2022-11-08T23:30:17.253Z,99947.84
2022-11-08T23:32:46.629Z,99955.81
2022-11-08T23:35:15.511Z,99944.69
2022-11-08T23:37:44.824Z,99929.59
2022-11-08T23:40:31.864Z,99929.13
2022-11-08T23:43:18.203Z,99940.38
2022-11-08T23:45:46.060Z,99930.41
2022-11-08T23:48:13.716Z,99941.19
2022-11-08T23:50:46.917Z,99941.84
2022-11-08T23:53:16.314Z,99942.84
2022-11-08T23:55:44.523Z,99938.53
2022-11-08T23:58:13.290Z,99943.84
